Time,TemperatureF,DewpointF,PressureIn,WindDirection,WindDirectionDegrees,WindSpeedMPH,WindSpeedGustMPH,Humidity,HourlyPrecipIn,Conditions,Clouds,dailyrainin,SolarRadiationWatts/m^2,SoftwareType,DateUTC
2013-03-08 00:04:00,46.0,44.4,29.91,ESE,115,0.0,2.0,94,0.00,,,0.00,0,Wunderground v.1.15,2013-03-08 08:04:00,
2013-03-08 00:09:00,46.0,44.4,29.91,ESE,115,0.0,2.0,94,0.00,,,0.00,0,Wunderground v.1.15,2013-03-08 08:09:00,
2013-03-08 00:14:00,45.8,44.2,29.91,ESE,115,0.0,0.0,94,0.00,,,0.00,0,Wunderground v.1.15,2013-03-08 08:14:00,
2013-03-08 00:20:00,45.7,44.1,29.91,ESE,115,0.0,0.0,94,0.00,,,0.00,0,Wunderground v.1.15,2013-03-08 08:20:00,
2013-03-08 00:25:00,45.6,44.0,29.91,ESE,115,0.0,0.0,94,0.00,,,0.00,0,Wunderground v.1.15,2013-03-08 08:25:00,
2013-03-08 00:30:00,45.5,43.9,29.91,ESE,115,0.0,0.0,94,0.00,,,0.00,0,Wunderground v.1.15,2013-03-08 08:30:00,
2013-03-08 00:36:00,45.5,44.2,29.91,ESE,115,0.0,0.0,95,0.00,,,0.00,0,Wunderground v.1.15,2013-03-08 08:36:00,
2013-03-08 00:41:00,45.4,43.8,29.90,ESE,115,0.0,0.0,94,0.00,,,0.00,0,Wunderground v.1.15,2013-03-08 08:41:00,
2013-03-08 00:46:00,45.2,43.6,29.90,ESE,115,0.0,0.0,94,0.00,,,0.00,0,Wunderground v.1.15,2013-03-08 08:46:00,
2013-03-08 00:51:00,45.1,43.8,29.90,ESE,115,0.0,0.0,95,0.00,,,0.00,0,Wunderground v.1.15,2013-03-08 08:51:00,
2013-03-08 00:57:00,44.5,43.2,29.90,ESE,116,1.0,3.0,95,0.00,,,0.00,0,Wunderground v.1.15,2013-03-08 08:57:00,
2013-03-08 01:02:00,44.4,43.1,29.90,ESE,115,0.0,3.0,95,0.00,,,0.00,0,Wunderground v.1.15,2013-03-08 09:02:00,
2013-03-08 01:07:00,44.3,42.7,29.90,ESE,115,0.0,3.0,94,0.00,,,0.00,0,Wunderground v.1.15,2013-03-08 09:07:00,
2013-03-08 01:13:00,43.7,42.1,29.90,ESE,115,0.0,0.0,94,0.00,,,0.00,0,Wunderground v.1.15,2013-03-08 09:13:00,
2013-03-08 01:18:00,43.3,42.0,29.90,North,5,0.0,1.0,95,0.00,,,0.00,0,Wunderground v.1.15,2013-03-08 09:18:00,
2013-03-08 01:24:00,43.0,41.9,29.89,North,5,0.0,0.0,96,0.00,,,0.00,0,Wunderground v.1.15,2013-03-08 09:24:00,
2013-03-08 01:30:00,43.0,42.2,29.90,North,5,0.0,0.0,97,0.00,,,0.00,0,Wunderground v.1.15,2013-03-08 09:30:00,
2013-03-08 01:35:00,43.0,42.2,29.90,SE,126,2.0,2.0,97,0.00,,,0.00,0,Wunderground v.1.15,2013-03-08 09:35:00,
2013-03-08 01:40:00,42.9,42.1,29.90,SE,130,0.0,0.0,97,0.00,,,0.00,0,Wunderground v.1.15,2013-03-08 09:40:00,
2013-03-08 01:46:00,42.9,42.4,29.89,ESE,121,0.0,1.0,98,0.00,,,0.00,0,Wunderground v.1.15,2013-03-08 09:46:00,
2013-03-08 01:52:00,43.1,42.6,29.89,ESE,115,0.0,1.0,98,0.00,,,0.00,0,Wunderground v.1.15,2013-03-08 09:52:00,
2013-03-08 01:57:00,42.8,41.7,29.89,ESE,115,0.0,1.0,96,0.00,,,0.00,0,Wunderground v.1.15,2013-03-08 09:57:00,
2013-03-08 02:03:00,42.7,42.2,29.90,ESE,115,2.0,4.0,98,0.00,,,0.00,0,Wunderground v.1.15,2013-03-08 10:03:00,
2013-03-08 02:09:00,42.6,42.1,29.89,ESE,115,1.0,4.0,98,0.00,,,0.00,0,Wunderground v.1.15,2013-03-08 10:09:00,
2013-03-08 02:14:00,42.5,42.0,29.89,ESE,115,0.0,0.0,98,0.00,,,0.00,0,Wunderground v.1.15,2013-03-08 10:14:00,
2013-03-08 02:20:00,42.4,41.6,29.89,NE,49,0.0,0.0,97,0.00,,,0.00,0,Wunderground v.1.15,2013-03-08 10:20:00,
2013-03-08 02:24:00,42.2,41.7,29.89,NE,49,0.0,0.0,98,0.00,,,0.00,0,Wunderground v.1.15,2013-03-08 10:24:00,
2013-03-08 02:30:00,42.2,41.7,29.88,ENE,71,0.0,0.0,98,0.00,,,0.00,0,Wunderground v.1.15,2013-03-08 10:30:00,
2013-03-08 02:35:00,42.1,41.8,29.88,East,101,0.0,1.0,99,0.00,,,0.00,0,Wunderground v.1.15,2013-03-08 10:35:00,
2013-03-08 02:40:00,42.1,41.8,29.88,East,100,0.0,0.0,99,0.00,,,0.00,0,Wunderground v.1.15,2013-03-08 10:40:00,
2013-03-08 02:45:00,42.1,41.6,29.88,East,101,0.0,0.0,98,0.00,,,0.00,0,Wunderground v.1.15,2013-03-08 10:45:00,
2013-03-08 02:51:00,42.2,41.7,29.88,East,101,0.0,0.0,98,0.00,,,0.00,0,Wunderground v.1.15,2013-03-08 10:51:00,
2013-03-08 02:57:00,42.2,41.7,29.88,East,101,0.0,0.0,98,0.00,,,0.00,0,Wunderground v.1.15,2013-03-08 10:57:00,
2013-03-08 03:03:00,42.2,41.7,29.88,East,101,0.0,2.0,98,0.00,,,0.00,0,Wunderground v.1.15,2013-03-08 11:03:00,
2013-03-08 03:08:00,42.2,41.7,29.88,SE,136,0.0,2.0,98,0.00,,,0.00,0,Wunderground v.1.15,2013-03-08 11:08:00,
2013-03-08 03:14:00,42.1,41.6,29.88,SE,140,2.0,2.0,98,0.00,,,0.00,0,Wunderground v.1.15,2013-03-08 11:14:00,
2013-03-08 03:20:00,42.1,41.6,29.88,SE,137,1.0,1.0,98,0.00,,,0.00,0,Wunderground v.1.15,2013-03-08 11:20:00,
2013-03-08 03:26:00,42.0,41.2,29.88,ESE,119,0.0,1.0,97,0.00,,,0.00,0,Wunderground v.1.15,2013-03-08 11:26:00,
2013-03-08 03:31:00,41.8,41.3,29.88,ESE,120,0.0,1.0,98,0.00,,,0.00,0,Wunderground v.1.15,2013-03-08 11:31:00,
2013-03-08 03:37:00,41.7,41.2,29.88,ESE,118,0.0,1.0,98,0.00,,,0.00,0,Wunderground v.1.15,2013-03-08 11:37:00,
2013-03-08 03:43:00,41.5,41.0,29.88,ESE,118,0.0,0.0,98,0.00,,,0.00,0,Wunderground v.1.15,2013-03-08 11:43:00,
2013-03-08 03:48:00,41.2,40.4,29.87,ESE,118,0.0,0.0,97,0.00,,,0.00,0,Wunderground v.1.15,2013-03-08 11:48:00,
2013-03-08 03:53:00,41.0,40.7,29.87,ESE,118,0.0,0.0,99,0.00,,,0.00,0,Wunderground v.1.15,2013-03-08 11:53:00,
2013-03-08 03:59:00,41.2,40.9,29.88,ESE,118,0.0,0.0,99,0.00,,,0.00,0,Wunderground v.1.15,2013-03-08 11:59:00,
2013-03-08 04:07:00,41.4,41.1,29.88,ESE,112,0.0,1.0,99,0.00,,,0.00,0,Wunderground v.1.15,2013-03-08 12:07:00,
2013-03-08 04:13:00,41.4,41.1,29.88,East,97,0.0,2.0,99,0.00,,,0.00,0,Wunderground v.1.15,2013-03-08 12:13:00,
2013-03-08 04:18:00,41.1,40.6,29.88,East,97,0.0,2.0,98,0.00,,,0.00,0,Wunderground v.1.15,2013-03-08 12:18:00,
2013-03-08 04:23:00,40.6,40.3,29.88,East,97,0.0,0.0,99,0.00,,,0.00,0,Wunderground v.1.15,2013-03-08 12:23:00,
2013-03-08 04:29:00,40.5,40.5,29.88,East,97,0.0,0.0,100,0.00,,,0.00,0,Wunderground v.1.15,2013-03-08 12:29:00,
2013-03-08 04:34:00,40.4,40.4,29.88,East,97,0.0,0.0,100,0.00,,,0.00,0,Wunderground v.1.15,2013-03-08 12:34:00,
2013-03-08 04:40:00,40.4,40.4,29.87,East,97,0.0,0.0,100,0.00,,,0.00,0,Wunderground v.1.15,2013-03-08 12:40:00,
2013-03-08 04:46:00,40.5,40.5,29.88,East,97,0.0,0.0,100,0.00,,,0.00,0,Wunderground v.1.15,2013-03-08 12:46:00,
2013-03-08 04:52:00,40.4,40.4,29.88,East,97,0.0,0.0,100,0.00,,,0.00,0,Wunderground v.1.15,2013-03-08 12:52:00,
2013-03-08 04:57:00,40.4,40.4,29.88,East,97,0.0,0.0,100,0.00,,,0.00,0,Wunderground v.1.15,2013-03-08 12:57:00,
2013-03-08 05:03:00,40.5,40.5,29.88,East,97,0.0,3.0,100,0.00,,,0.00,0,Wunderground v.1.15,2013-03-08 13:03:00,
2013-03-08 05:09:00,40.4,40.1,29.87,East,97,0.0,3.0,99,0.00,,,0.00,0,Wunderground v.1.15,2013-03-08 13:09:00,
2013-03-08 05:13:00,40.3,40.3,29.87,ESE,118,2.0,2.0,100,0.00,,,0.00,0,Wunderground v.1.15,2013-03-08 13:13:00,
2013-03-08 05:19:00,40.5,40.5,29.88,East,99,0.0,0.0,100,0.00,,,0.00,0,Wunderground v.1.15,2013-03-08 13:19:00,
2013-03-08 05:25:00,40.0,39.5,29.88,East,95,0.0,0.0,98,0.00,,,0.00,0,Wunderground v.1.15,2013-03-08 13:25:00,
2013-03-08 05:30:00,39.7,39.4,29.88,East,95,0.0,0.0,99,0.00,,,0.00,0,Wunderground v.1.15,2013-03-08 13:30:00,
2013-03-08 05:36:00,39.5,39.0,29.88,East,95,0.0,0.0,98,0.00,,,0.00,0,Wunderground v.1.15,2013-03-08 13:36:00,
2013-03-08 05:41:00,39.3,39.3,29.88,East,101,1.0,1.0,100,0.00,,,0.00,0,Wunderground v.1.15,2013-03-08 13:41:00,
2013-03-08 05:46:00,39.2,39.2,29.88,East,101,0.0,1.0,100,0.00,,,0.00,0,Wunderground v.1.15,2013-03-08 13:46:00,
2013-03-08 05:52:00,39.1,39.1,29.88,East,101,0.0,0.0,100,0.00,,,0.00,0,Wunderground v.1.15,2013-03-08 13:52:00,
2013-03-08 05:56:00,38.9,38.9,29.88,East,101,0.0,0.0,100,0.00,,,0.00,0,Wunderground v.1.15,2013-03-08 13:56:00,
2013-03-08 06:02:00,39.1,39.1,29.88,East,101,0.0,2.0,100,0.00,,,0.00,0,Wunderground v.1.15,2013-03-08 14:02:00,
2013-03-08 06:08:00,38.9,38.9,29.88,East,101,0.0,2.0,100,0.00,,,0.00,0,Wunderground v.1.15,2013-03-08 14:08:00,
2013-03-08 06:13:00,38.5,38.2,29.88,East,101,0.0,0.0,99,0.00,,,0.00,0,Wunderground v.1.15,2013-03-08 14:13:00,
2013-03-08 06:18:00,38.1,37.8,29.88,East,101,0.0,0.0,99,0.00,,,0.00,0,Wunderground v.1.15,2013-03-08 14:18:00,
2013-03-08 06:23:00,38.1,38.1,29.88,East,101,0.0,0.0,100,0.00,,,0.00,0,Wunderground v.1.15,2013-03-08 14:23:00,
2013-03-08 06:28:00,38.4,38.4,29.88,East,101,0.0,0.0,100,0.00,,,0.00,0,Wunderground v.1.15,2013-03-08 14:28:00,
2013-03-08 06:34:00,38.8,38.8,29.89,East,101,0.0,0.0,100,0.00,,,0.00,0,Wunderground v.1.15,2013-03-08 14:34:00,
2013-03-08 06:40:00,39.0,39.0,29.89,East,101,0.0,0.0,100,0.00,,,0.00,0,Wunderground v.1.15,2013-03-08 14:40:00,
2013-03-08 06:46:00,38.8,38.8,29.89,East,101,0.0,0.0,100,0.00,,,0.00,0,Wunderground v.1.15,2013-03-08 14:46:00,
2013-03-08 06:51:00,38.4,38.4,29.89,East,101,0.0,0.0,100,0.00,,,0.00,0,Wunderground v.1.15,2013-03-08 14:51:00,
2013-03-08 06:57:00,38.3,38.3,29.89,East,101,0.0,0.0,100,0.00,,,0.00,0,Wunderground v.1.15,2013-03-08 14:57:00,
2013-03-08 07:02:00,38.4,38.4,29.89,East,101,0.0,2.0,100,0.00,,,0.00,0,Wunderground v.1.15,2013-03-08 15:02:00,
2013-03-08 07:07:00,39.2,39.2,29.89,East,101,1.0,2.0,100,0.00,,,0.00,0,Wunderground v.1.15,2013-03-08 15:07:00,
2013-03-08 07:13:00,39.9,39.9,29.90,ESE,102,0.0,2.0,100,0.00,,,0.00,0,Wunderground v.1.15,2013-03-08 15:13:00,
2013-03-08 07:19:00,40.1,39.8,29.90,ESE,102,0.0,2.0,99,0.00,,,0.00,0,Wunderground v.1.15,2013-03-08 15:19:00,
2013-03-08 07:24:00,40.3,40.0,29.90,ESE,102,0.0,0.0,99,0.00,,,0.00,0,Wunderground v.1.15,2013-03-08 15:24:00,
2013-03-08 07:30:00,40.8,40.3,29.90,ESE,102,1.0,1.0,98,0.00,,,0.00,0,Wunderground v.1.15,2013-03-08 15:30:00,
2013-03-08 07:35:00,41.5,41.0,29.90,East,97,1.0,1.0,98,0.00,,,0.00,0,Wunderground v.1.15,2013-03-08 15:35:00,
2013-03-08 07:40:00,42.0,41.5,29.90,North,0,0.0,0.0,98,0.00,,,0.00,0,Wunderground v.1.15,2013-03-08 15:40:00,
2013-03-08 07:46:00,42.3,41.8,29.90,North,0,0.0,0.0,98,0.00,,,0.00,0,Wunderground v.1.15,2013-03-08 15:46:00,
2013-03-08 07:52:00,42.7,42.2,29.90,North,0,0.0,0.0,98,0.00,,,0.00,0,Wunderground v.1.15,2013-03-08 15:52:00,
2013-03-08 07:58:00,43.0,41.7,29.90,North,0,0.0,0.0,95,0.00,,,0.00,0,Wunderground v.1.15,2013-03-08 15:58:00,
2013-03-08 08:03:00,43.6,42.5,29.89,North,0,0.0,1.0,96,0.00,,,0.00,0,Wunderground v.1.15,2013-03-08 16:03:00,
2013-03-08 08:08:00,44.1,42.8,29.89,North,0,0.0,1.0,95,0.00,,,0.00,0,Wunderground v.1.15,2013-03-08 16:08:00,
2013-03-08 08:14:00,44.5,42.9,29.90,North,0,0.0,0.0,94,0.00,,,0.00,0,Wunderground v.1.15,2013-03-08 16:14:00,
2013-03-08 08:20:00,45.1,43.5,29.89,North,0,0.0,0.0,94,0.00,,,0.00,0,Wunderground v.1.15,2013-03-08 16:20:00,
2013-03-08 08:25:00,45.7,44.1,29.89,North,0,0.0,0.0,94,0.00,,,0.00,0,Wunderground v.1.15,2013-03-08 16:25:00,
2013-03-08 08:30:00,46.1,43.9,29.89,North,0,0.0,0.0,92,0.00,,,0.00,0,Wunderground v.1.15,2013-03-08 16:30:00,
2013-03-08 08:35:00,46.6,44.4,29.89,WNW,283,0.0,2.0,92,0.00,,,0.00,0,Wunderground v.1.15,2013-03-08 16:35:00,
2013-03-08 08:40:00,47.1,44.9,29.89,West,270,1.0,1.0,92,0.00,,,0.00,0,Wunderground v.1.15,2013-03-08 16:40:00,
2013-03-08 08:46:00,47.4,45.2,29.89,West,280,1.0,2.0,92,0.00,,,0.00,0,Wunderground v.1.15,2013-03-08 16:46:00,
2013-03-08 08:52:00,47.7,45.2,29.89,West,281,0.0,0.0,91,0.00,,,0.00,0,Wunderground v.1.15,2013-03-08 16:52:00,
2013-03-08 08:57:00,48.3,45.8,29.89,SE,141,0.0,1.0,91,0.00,,,0.00,0,Wunderground v.1.15,2013-03-08 16:57:00,
2013-03-08 09:02:00,48.8,46.0,29.89,SW,214,0.0,2.0,90,0.00,,,0.00,0,Wunderground v.1.15,2013-03-08 17:02:00,
2013-03-08 09:09:00,49.3,46.2,29.89,West,263,0.0,2.0,89,0.00,,,0.00,0,Wunderground v.1.15,2013-03-08 17:09:00,
2013-03-08 09:14:00,49.9,46.8,29.89,WSW,250,1.0,1.0,89,0.00,,,0.00,0,Wunderground v.1.15,2013-03-08 17:14:00,
2013-03-08 09:20:00,50.3,46.3,29.89,SSW,208,0.0,0.0,86,0.00,,,0.00,0,Wunderground v.1.15,2013-03-08 17:20:00,
2013-03-08 09:26:00,50.6,46.6,29.89,WNW,293,3.0,5.0,86,0.00,,,0.00,0,Wunderground v.1.15,2013-03-08 17:26:00,
2013-03-08 09:31:00,50.8,46.8,29.89,West,274,3.0,4.0,86,0.00,,,0.00,0,Wunderground v.1.15,2013-03-08 17:31:00,
2013-03-08 09:37:00,51.1,46.4,29.89,NW,304,6.0,6.0,84,0.00,,,0.00,0,Wunderground v.1.15,2013-03-08 17:37:00,
2013-03-08 09:42:00,51.1,46.7,29.89,WNW,301,2.0,5.0,85,0.00,,,0.00,0,Wunderground v.1.15,2013-03-08 17:42:00,
2013-03-08 09:47:00,51.2,46.8,29.89,WNW,302,4.0,6.0,85,0.00,,,0.00,0,Wunderground v.1.15,2013-03-08 17:47:00,
2013-03-08 09:53:00,51.4,47.0,29.89,WNW,293,3.0,4.0,85,0.00,,,0.00,0,Wunderground v.1.15,2013-03-08 17:53:00,
2013-03-08 09:58:00,51.5,46.8,29.89,SW,228,7.0,7.0,84,0.00,,,0.00,0,Wunderground v.1.15,2013-03-08 17:58:00,
2013-03-08 10:04:00,51.5,46.5,29.89,NW,313,4.0,8.0,83,0.00,,,0.00,0,Wunderground v.1.15,2013-03-08 18:04:00,
2013-03-08 10:09:00,51.4,46.4,29.89,WNW,297,4.0,4.0,83,0.00,,,0.00,0,Wunderground v.1.15,2013-03-08 18:09:00,
2013-03-08 10:16:00,51.9,47.2,29.89,NNW,338,5.0,5.0,84,0.00,,,0.00,0,Wunderground v.1.15,2013-03-08 18:16:00,
2013-03-08 10:22:00,52.0,47.0,29.90,NW,323,1.0,4.0,83,0.00,,,0.00,0,Wunderground v.1.15,2013-03-08 18:22:00,
2013-03-08 10:27:00,52.5,47.8,29.89,WSW,255,3.0,5.0,84,0.00,,,0.00,0,Wunderground v.1.15,2013-03-08 18:27:00,
2013-03-08 10:32:00,52.5,46.8,29.89,NW,326,3.0,5.0,81,0.00,,,0.00,0,Wunderground v.1.15,2013-03-08 18:32:00,
2013-03-08 10:37:00,52.5,47.2,29.89,NW,314,4.0,5.0,82,0.00,,,0.00,0,Wunderground v.1.15,2013-03-08 18:37:00,
2013-03-08 10:42:00,52.8,47.8,29.89,WNW,285,3.0,3.0,83,0.00,,,0.00,0,Wunderground v.1.15,2013-03-08 18:42:00,
2013-03-08 10:48:00,53.1,47.1,29.88,WNW,301,8.0,8.0,80,0.00,,,0.00,0,Wunderground v.1.15,2013-03-08 18:48:00,
2013-03-08 10:53:00,53.1,46.8,29.88,NNW,331,5.0,7.0,79,0.00,,,0.00,0,Wunderground v.1.15,2013-03-08 18:53:00,
2013-03-08 10:59:00,53.3,47.3,29.88,WNW,294,6.0,6.0,80,0.00,,,0.00,0,Wunderground v.1.15,2013-03-08 18:59:00,
2013-03-08 11:07:00,53.8,47.4,29.88,WSW,248,2.0,9.0,79,0.00,,,0.00,0,Wunderground v.1.15,2013-03-08 19:07:00,
2013-03-08 11:13:00,54.5,47.8,29.89,NNW,336,3.0,5.0,78,0.00,,,0.00,0,Wunderground v.1.15,2013-03-08 19:13:00,
2013-03-08 11:19:00,54.8,47.7,29.88,NNW,328,1.0,1.0,77,0.00,,,0.00,0,Wunderground v.1.15,2013-03-08 19:19:00,
2013-03-08 11:25:00,55.0,48.3,29.88,North,352,0.0,5.0,78,0.00,,,0.00,0,Wunderground v.1.15,2013-03-08 19:25:00,
2013-03-08 11:30:00,55.1,47.7,29.88,NNW,343,2.0,2.0,76,0.00,,,0.00,0,Wunderground v.1.15,2013-03-08 19:30:00,
2013-03-08 11:35:00,55.1,48.0,29.88,NNW,342,1.0,5.0,77,0.00,,,0.00,0,Wunderground v.1.15,2013-03-08 19:35:00,
2013-03-08 11:41:00,55.7,48.6,29.88,WNW,286,4.0,6.0,77,0.00,,,0.00,0,Wunderground v.1.15,2013-03-08 19:41:00,
2013-03-08 11:47:00,56.2,49.1,29.88,NNW,328,4.0,6.0,77,0.00,,,0.00,0,Wunderground v.1.15,2013-03-08 19:47:00,
2013-03-08 11:53:00,56.8,49.0,29.88,West,268,5.0,5.0,75,0.00,,,0.00,0,Wunderground v.1.15,2013-03-08 19:53:00,
2013-03-08 12:00:00,57.3,49.4,29.88,NW,314,3.0,3.0,75,0.00,,,0.00,0,Wunderground v.1.15,2013-03-08 20:00:00,
2013-03-08 12:07:00,57.5,49.6,29.88,NNW,331,3.0,10.0,75,0.00,,,0.00,0,Wunderground v.1.15,2013-03-08 20:07:00,
2013-03-08 12:13:00,57.8,49.2,29.87,NW,304,6.0,6.0,73,0.00,,,0.00,0,Wunderground v.1.15,2013-03-08 20:13:00,
2013-03-08 12:19:00,58.2,49.6,29.88,WNW,287,4.0,7.0,73,0.00,,,0.00,0,Wunderground v.1.15,2013-03-08 20:19:00,
2013-03-08 12:24:00,58.5,49.5,29.87,SSW,212,3.0,8.0,72,0.00,,,0.00,0,Wunderground v.1.15,2013-03-08 20:24:00,
2013-03-08 12:30:00,59.1,48.9,29.87,NW,306,7.0,7.0,69,0.00,,,0.00,0,Wunderground v.1.15,2013-03-08 20:30:00,
2013-03-08 12:36:00,59.1,50.1,29.87,WNW,289,3.0,7.0,72,0.00,,,0.00,0,Wunderground v.1.15,2013-03-08 20:36:00,
2013-03-08 12:43:00,59.4,48.8,29.87,NW,304,4.0,9.0,68,0.00,,,0.00,0,Wunderground v.1.15,2013-03-08 20:43:00,
2013-03-08 12:48:00,59.3,48.7,29.87,NW,312,1.0,9.0,68,0.00,,,0.00,0,Wunderground v.1.15,2013-03-08 20:48:00,
2013-03-08 12:53:00,59.3,48.7,29.87,SW,236,3.0,5.0,68,0.00,,,0.00,0,Wunderground v.1.15,2013-03-08 20:53:00,
2013-03-08 12:59:00,59.6,49.0,29.87,NW,308,4.0,4.0,68,0.00,,,0.00,0,Wunderground v.1.15,2013-03-08 20:59:00,
2013-03-08 13:07:00,59.8,50.0,29.87,WNW,300,5.0,9.0,70,0.00,,,0.00,0,Wunderground v.1.15,2013-03-08 21:07:00,
2013-03-08 13:12:00,60.2,50.8,29.86,WNW,291,3.0,5.0,71,0.00,,,0.00,0,Wunderground v.1.15,2013-03-08 21:12:00,
2013-03-08 13:17:00,60.5,50.7,29.86,WNW,303,2.0,5.0,70,0.00,,,0.00,0,Wunderground v.1.15,2013-03-08 21:17:00,
2013-03-08 13:22:00,60.2,50.4,29.86,WNW,300,3.0,7.0,70,0.00,,,0.00,0,Wunderground v.1.15,2013-03-08 21:22:00,
2013-03-08 13:27:00,60.5,51.0,29.86,WNW,290,7.0,7.0,71,0.00,,,0.00,0,Wunderground v.1.15,2013-03-08 21:27:00,
2013-03-08 13:33:00,60.6,51.1,29.86,SSW,205,3.0,6.0,71,0.00,,,0.00,0,Wunderground v.1.15,2013-03-08 21:33:00,
2013-03-08 13:39:00,60.9,51.4,29.86,SSW,209,1.0,1.0,71,0.00,,,0.00,0,Wunderground v.1.15,2013-03-08 21:39:00,
2013-03-08 13:44:00,61.1,50.5,29.86,NW,313,6.0,6.0,68,0.00,,,0.00,0,Wunderground v.1.15,2013-03-08 21:44:00,
2013-03-08 13:50:00,61.2,49.7,29.85,SSW,210,3.0,5.0,66,0.00,,,0.00,0,Wunderground v.1.15,2013-03-08 21:50:00,
2013-03-08 13:55:00,61.5,49.2,29.85,SW,214,3.0,5.0,64,0.00,,,0.00,0,Wunderground v.1.15,2013-03-08 21:55:00,
2013-03-08 14:00:00,61.7,49.0,29.85,SW,230,4.0,13.0,63,0.00,,,0.00,0,Wunderground v.1.15,2013-03-08 22:00:00,
2013-03-08 14:07:00,62.2,49.4,29.85,NNW,335,3.0,13.0,63,0.00,,,0.00,0,Wunderground v.1.15,2013-03-08 22:07:00,
2013-03-08 14:13:00,62.4,49.2,29.85,NNE,26,0.0,3.0,62,0.00,,,0.00,0,Wunderground v.1.15,2013-03-08 22:13:00,
2013-03-08 14:19:00,62.5,48.9,29.85,NW,322,6.0,6.0,61,0.00,,,0.00,0,Wunderground v.1.15,2013-03-08 22:19:00,
2013-03-08 14:24:00,62.4,48.8,29.85,WNW,300,4.0,7.0,61,0.00,,,0.00,0,Wunderground v.1.15,2013-03-08 22:24:00,
2013-03-08 14:29:00,62.5,48.9,29.85,NW,313,6.0,6.0,61,0.00,,,0.00,0,Wunderground v.1.15,2013-03-08 22:29:00,
2013-03-08 14:36:00,62.7,48.6,29.85,NW,317,5.0,6.0,60,0.00,,,0.00,0,Wunderground v.1.15,2013-03-08 22:36:00,
2013-03-08 14:41:00,62.9,47.9,29.85,NW,319,0.0,4.0,58,0.00,,,0.00,0,Wunderground v.1.15,2013-03-08 22:41:00,
2013-03-08 14:47:00,63.1,48.5,29.85,WNW,295,6.0,9.0,59,0.00,,,0.00,0,Wunderground v.1.15,2013-03-08 22:47:00,
2013-03-08 14:52:00,63.4,49.3,29.85,SSW,193,0.0,2.0,60,0.00,,,0.00,0,Wunderground v.1.15,2013-03-08 22:52:00,
2013-03-08 14:57:00,63.5,48.0,29.85,WSW,238,2.0,3.0,57,0.00,,,0.00,0,Wunderground v.1.15,2013-03-08 22:57:00,
2013-03-08 15:03:00,63.6,48.1,29.85,WNW,300,2.0,8.0,57,0.00,,,0.00,0,Wunderground v.1.15,2013-03-08 23:03:00,
2013-03-08 15:09:00,63.8,48.7,29.84,WNW,301,5.0,5.0,58,0.00,,,0.00,0,Wunderground v.1.15,2013-03-08 23:09:00,
2013-03-08 15:15:00,64.1,49.0,29.85,SW,226,0.0,5.0,58,0.00,,,0.00,0,Wunderground v.1.15,2013-03-08 23:15:00,
2013-03-08 15:21:00,64.1,49.0,29.85,NNW,332,4.0,4.0,58,0.00,,,0.00,0,Wunderground v.1.15,2013-03-08 23:21:00,
2013-03-08 15:26:00,64.0,48.0,29.85,NW,314,6.0,6.0,56,0.00,,,0.00,0,Wunderground v.1.15,2013-03-08 23:26:00,
2013-03-08 15:32:00,64.1,48.5,29.85,West,272,3.0,7.0,57,0.00,,,0.00,0,Wunderground v.1.15,2013-03-08 23:32:00,
2013-03-08 15:37:00,64.1,48.1,29.85,SSE,165,1.0,7.0,56,0.00,,,0.00,0,Wunderground v.1.15,2013-03-08 23:37:00,
2013-03-08 15:43:00,64.3,48.3,29.85,West,275,2.0,4.0,56,0.00,,,0.00,0,Wunderground v.1.15,2013-03-08 23:43:00,
2013-03-08 15:48:00,64.0,48.0,29.85,WNW,300,2.0,6.0,56,0.00,,,0.00,0,Wunderground v.1.15,2013-03-08 23:48:00,
2013-03-08 15:54:00,63.7,47.2,29.85,WNW,302,0.0,4.0,55,0.00,,,0.00,0,Wunderground v.1.15,2013-03-08 23:54:00,
2013-03-08 16:00:00,63.6,47.6,29.85,WSW,249,1.0,12.0,56,0.00,,,0.00,0,Wunderground v.1.15,2013-03-09 00:00:00,
2013-03-08 16:07:00,63.4,48.8,29.85,SW,235,0.0,12.0,59,0.00,,,0.00,0,Wunderground v.1.15,2013-03-09 00:07:00,
2013-03-08 16:13:00,63.2,48.6,29.85,SW,235,0.0,0.0,59,0.00,,,0.00,0,Wunderground v.1.15,2013-03-09 00:13:00,
2013-03-08 16:19:00,63.1,48.5,29.85,SW,235,0.0,0.0,59,0.00,,,0.00,0,Wunderground v.1.15,2013-03-09 00:19:00,
2013-03-08 16:24:00,62.9,47.4,29.85,SSE,150,0.0,2.0,57,0.00,,,0.00,0,Wunderground v.1.15,2013-03-09 00:24:00,
2013-03-08 16:30:00,62.8,48.3,29.85,SE,128,1.0,1.0,59,0.00,,,0.00,0,Wunderground v.1.15,2013-03-09 00:30:00,
2013-03-08 16:36:00,62.6,46.2,29.85,ESE,118,0.0,1.0,55,0.00,,,0.00,0,Wunderground v.1.15,2013-03-09 00:36:00,
2013-03-08 16:42:00,62.2,48.1,29.85,SE,141,1.0,3.0,60,0.00,,,0.00,0,Wunderground v.1.15,2013-03-09 00:42:00,
2013-03-08 16:48:00,62.0,48.4,29.85,SE,129,3.0,3.0,61,0.00,,,0.00,0,Wunderground v.1.15,2013-03-09 00:48:00,
2013-03-08 16:53:00,61.8,48.6,29.85,SE,126,6.0,6.0,62,0.00,,,0.00,0,Wunderground v.1.15,2013-03-09 00:53:00,
2013-03-08 16:59:00,61.5,48.4,29.85,ESE,121,8.0,8.0,62,0.00,,,0.00,0,Wunderground v.1.15,2013-03-09 00:59:00,
2013-03-08 17:07:00,61.4,48.7,29.86,SE,124,5.0,8.0,63,0.00,,,0.00,0,Wunderground v.1.15,2013-03-09 01:07:00,
2013-03-08 17:12:00,61.3,47.3,29.86,SE,133,5.0,6.0,60,0.00,,,0.00,0,Wunderground v.1.15,2013-03-09 01:12:00,
2013-03-08 17:18:00,61.2,48.1,29.86,ESE,121,6.0,6.0,62,0.00,,,0.00,0,Wunderground v.1.15,2013-03-09 01:18:00,
2013-03-08 17:23:00,61.0,47.9,29.86,SE,139,2.0,8.0,62,0.00,,,0.00,0,Wunderground v.1.15,2013-03-09 01:23:00,
2013-03-08 17:29:00,60.9,48.2,29.86,SE,129,2.0,2.0,63,0.00,,,0.00,0,Wunderground v.1.15,2013-03-09 01:29:00,
2013-03-08 17:34:00,60.9,48.2,29.87,SE,126,2.0,3.0,63,0.00,,,0.00,0,Wunderground v.1.15,2013-03-09 01:34:00,
2013-03-08 17:39:00,60.8,47.3,29.87,SE,134,2.0,2.0,61,0.00,,,0.00,0,Wunderground v.1.15,2013-03-09 01:39:00,
2013-03-08 17:45:00,60.7,48.0,29.87,SSE,147,2.0,4.0,63,0.00,,,0.00,0,Wunderground v.1.15,2013-03-09 01:45:00,
2013-03-08 17:50:00,60.4,47.7,29.87,SSE,159,2.0,2.0,63,0.00,,,0.00,0,Wunderground v.1.15,2013-03-09 01:50:00,
2013-03-08 17:55:00,60.3,48.1,29.87,SE,143,1.0,3.0,64,0.00,,,0.00,0,Wunderground v.1.15,2013-03-09 01:55:00,
2013-03-08 18:01:00,60.0,48.2,29.88,SSE,151,1.0,9.0,65,0.00,,,0.00,0,Wunderground v.1.15,2013-03-09 02:01:00,
2013-03-08 18:07:00,59.6,47.4,29.88,SE,143,5.0,9.0,64,0.00,,,0.00,0,Wunderground v.1.15,2013-03-09 02:07:00,
2013-03-08 18:12:00,59.3,48.7,29.88,SE,144,3.0,4.0,68,0.00,,,0.00,0,Wunderground v.1.15,2013-03-09 02:12:00,
2013-03-08 18:17:00,59.0,48.8,29.89,SE,137,2.0,4.0,69,0.00,,,0.00,0,Wunderground v.1.15,2013-03-09 02:17:00,
2013-03-08 18:23:00,58.7,49.3,29.89,SE,141,2.0,4.0,71,0.00,,,0.00,0,Wunderground v.1.15,2013-03-09 02:23:00,
2013-03-08 18:29:00,58.3,49.3,29.89,SSE,164,2.0,2.0,72,0.00,,,0.00,0,Wunderground v.1.15,2013-03-09 02:29:00,
2013-03-08 18:35:00,58.1,49.5,29.89,SE,128,2.0,5.0,73,0.00,,,0.00,0,Wunderground v.1.15,2013-03-09 02:35:00,
2013-03-08 18:40:00,57.8,49.6,29.90,SE,126,2.0,5.0,74,0.00,,,0.00,0,Wunderground v.1.15,2013-03-09 02:40:00,
2013-03-08 18:46:00,57.6,49.7,29.90,SE,133,2.0,5.0,75,0.00,,,0.00,0,Wunderground v.1.15,2013-03-09 02:46:00,
2013-03-08 18:52:00,57.4,49.5,29.90,ESE,106,2.0,5.0,75,0.00,,,0.00,0,Wunderground v.1.15,2013-03-09 02:52:00,
2013-03-08 18:57:00,57.1,49.2,29.90,ESE,117,6.0,6.0,75,0.00,,,0.00,0,Wunderground v.1.15,2013-03-09 02:57:00,
2013-03-08 19:03:00,56.8,49.7,29.91,SE,132,1.0,9.0,77,0.00,,,0.00,0,Wunderground v.1.15,2013-03-09 03:03:00,
2013-03-08 19:09:00,56.7,49.6,29.92,East,96,3.0,3.0,77,0.00,,,0.00,0,Wunderground v.1.15,2013-03-09 03:09:00,
2013-03-08 19:14:00,56.4,50.0,29.91,SE,128,5.0,6.0,79,0.00,,,0.00,0,Wunderground v.1.15,2013-03-09 03:14:00,
2013-03-08 19:19:00,56.2,50.1,29.92,SE,132,5.0,5.0,80,0.00,,,0.00,0,Wunderground v.1.15,2013-03-09 03:19:00,
2013-03-08 19:25:00,56.0,50.3,29.92,SE,129,5.0,6.0,81,0.00,,,0.00,0,Wunderground v.1.15,2013-03-09 03:25:00,
2013-03-08 19:30:00,55.7,50.3,29.93,SE,127,5.0,5.0,82,0.00,,,0.00,0,Wunderground v.1.15,2013-03-09 03:30:00,
2013-03-08 19:36:00,55.5,50.4,29.93,ESE,110,5.0,9.0,83,0.00,,,0.00,0,Wunderground v.1.15,2013-03-09 03:36:00,
2013-03-08 19:42:00,55.2,50.4,29.94,ESE,118,5.0,8.0,84,0.00,,,0.00,0,Wunderground v.1.15,2013-03-09 03:42:00,
2013-03-08 19:48:00,54.8,50.7,29.94,SE,133,6.0,15.0,86,0.00,,,0.00,0,Wunderground v.1.15,2013-03-09 03:48:00,
2013-03-08 19:54:00,54.7,50.6,29.95,ESE,120,8.0,8.0,86,0.00,,,0.00,0,Wunderground v.1.15,2013-03-09 03:54:00,
2013-03-08 20:00:00,54.4,50.3,29.95,SE,134,7.0,7.0,86,0.00,,,0.00,0,Wunderground v.1.15,2013-03-09 04:00:00,
2013-03-08 20:07:00,54.3,50.2,29.96,ESE,121,5.0,11.0,86,0.00,,,0.00,0,Wunderground v.1.15,2013-03-09 04:07:00,
2013-03-08 20:12:00,54.2,50.1,29.97,ESE,119,8.0,10.0,86,0.00,,,0.00,0,Wunderground v.1.15,2013-03-09 04:12:00,
2013-03-08 20:18:00,54.1,50.0,29.97,SE,135,4.0,10.0,86,0.00,,,0.00,0,Wunderground v.1.15,2013-03-09 04:18:00,
2013-03-08 20:23:00,54.0,49.9,29.96,SE,138,3.0,6.0,86,0.00,,,0.00,0,Wunderground v.1.15,2013-03-09 04:23:00,
2013-03-08 20:29:00,53.9,49.8,29.97,SE,132,6.0,6.0,86,0.00,,,0.00,0,Wunderground v.1.15,2013-03-09 04:29:00,
2013-03-08 20:35:00,53.9,49.5,29.97,ESE,114,6.0,6.0,85,0.00,,,0.00,0,Wunderground v.1.15,2013-03-09 04:35:00,
2013-03-08 20:41:00,53.8,49.4,29.98,ENE,75,3.0,3.0,85,0.00,,,0.00,0,Wunderground v.1.15,2013-03-09 04:41:00,
2013-03-08 20:47:00,53.7,49.0,29.99,ESE,121,1.0,3.0,84,0.00,,,0.00,0,Wunderground v.1.15,2013-03-09 04:47:00,
2013-03-08 20:53:00,53.6,48.9,29.99,ESE,120,3.0,4.0,84,0.00,,,0.00,0,Wunderground v.1.15,2013-03-09 04:53:00,
2013-03-08 20:58:00,53.5,48.8,29.99,SE,130,3.0,5.0,84,0.00,,,0.00,0,Wunderground v.1.15,2013-03-09 04:58:00,
2013-03-08 21:00:00,53.5,48.8,29.99,ESE,121,4.0,4.0,84,0.00,,,0.00,0,Wunderground v.1.15,2013-03-09 05:00:00,
2013-03-08 21:01:00,53.4,48.7,29.99,SE,134,3.0,16.0,84,0.00,,,0.00,0,Wunderground v.1.15,2013-03-09 05:01:00,
2013-03-08 21:03:00,53.4,48.7,29.99,ESE,117,6.0,16.0,84,0.00,,,0.00,0,Wunderground v.1.15,2013-03-09 05:03:00,
2013-03-08 21:07:00,53.2,48.8,29.99,SE,145,3.0,16.0,85,0.00,,,0.00,0,Wunderground v.1.15,2013-03-09 05:07:00,
2013-03-08 21:12:00,53.1,48.7,29.99,SE,132,5.0,5.0,85,0.00,,,0.00,0,Wunderground v.1.15,2013-03-09 05:12:00,
2013-03-08 21:17:00,52.9,48.5,29.99,ESE,120,6.0,8.0,85,0.00,,,0.00,0,Wunderground v.1.15,2013-03-09 05:17:00,
2013-03-08 21:23:00,52.8,48.4,29.99,ESE,115,8.0,8.0,85,0.00,,,0.00,0,Wunderground v.1.15,2013-03-09 05:23:00,
2013-03-08 21:29:00,52.7,48.0,29.99,ESE,116,5.0,5.0,84,0.00,,,0.00,0,Wunderground v.1.15,2013-03-09 05:29:00,
2013-03-08 21:35:00,52.6,47.9,30.00,ESE,113,2.0,8.0,84,0.00,,,0.00,0,Wunderground v.1.15,2013-03-09 05:35:00,
2013-03-08 21:41:00,52.6,47.9,30.00,SE,139,2.0,4.0,84,0.00,,,0.00,0,Wunderground v.1.15,2013-03-09 05:41:00,
2013-03-08 21:47:00,52.5,47.8,30.00,ESE,115,3.0,8.0,84,0.00,,,0.00,0,Wunderground v.1.15,2013-03-09 05:47:00,
2013-03-08 21:52:00,52.3,47.6,30.01,ESE,111,4.0,5.0,84,0.00,,,0.00,0,Wunderground v.1.15,2013-03-09 05:52:00,
2013-03-08 21:58:00,52.2,47.5,30.01,SE,129,3.0,6.0,84,0.00,,,0.00,0,Wunderground v.1.15,2013-03-09 05:58:00,
2013-03-08 22:07:00,52.0,47.3,30.01,SE,130,2.0,8.0,84,0.00,,,0.00,0,Wunderground v.1.15,2013-03-09 06:07:00,
2013-03-08 22:12:00,51.8,47.4,30.01,SE,144,2.0,3.0,85,0.00,,,0.00,0,Wunderground v.1.15,2013-03-09 06:12:00,
2013-03-08 22:18:00,51.6,47.2,30.02,ESE,122,1.0,6.0,85,0.00,,,0.00,0,Wunderground v.1.15,2013-03-09 06:18:00,
2013-03-08 22:23:00,51.4,47.0,30.02,ESE,117,3.0,3.0,85,0.00,,,0.00,0,Wunderground v.1.15,2013-03-09 06:23:00,
2013-03-08 22:29:00,51.3,46.9,30.02,SE,141,0.0,0.0,85,0.00,,,0.00,0,Wunderground v.1.15,2013-03-09 06:29:00,
2013-03-08 22:35:00,51.2,46.8,30.02,SE,127,0.0,3.0,85,0.00,,,0.00,0,Wunderground v.1.15,2013-03-09 06:35:00,
2013-03-08 22:41:00,51.1,46.7,30.02,SE,127,0.0,0.0,85,0.00,,,0.00,0,Wunderground v.1.15,2013-03-09 06:41:00,
2013-03-08 22:46:00,50.9,46.9,30.02,SE,127,0.0,0.0,86,0.00,,,0.00,0,Wunderground v.1.15,2013-03-09 06:46:00,
2013-03-08 22:51:00,50.8,46.8,30.03,South,186,0.0,0.0,86,0.00,,,0.00,0,Wunderground v.1.15,2013-03-09 06:51:00,
2013-03-08 22:56:00,50.6,46.6,30.03,SSW,192,0.0,0.0,86,0.00,,,0.00,0,Wunderground v.1.15,2013-03-09 06:56:00,
2013-03-08 23:02:00,50.5,46.5,30.03,SSW,192,0.0,10.0,86,0.00,,,0.00,0,Wunderground v.1.15,2013-03-09 07:02:00,
2013-03-08 23:07:00,50.4,46.4,30.04,South,190,0.0,10.0,86,0.00,,,0.00,0,Wunderground v.1.15,2013-03-09 07:07:00,
2013-03-08 23:13:00,50.0,46.3,30.03,SSE,153,0.0,2.0,87,0.00,,,0.00,0,Wunderground v.1.15,2013-03-09 07:13:00,
2013-03-08 23:18:00,49.7,46.3,30.04,SE,128,1.0,2.0,88,0.00,,,0.00,0,Wunderground v.1.15,2013-03-09 07:18:00,
2013-03-08 23:24:00,49.6,46.5,30.04,SE,146,0.0,3.0,89,0.00,,,0.00,0,Wunderground v.1.15,2013-03-09 07:24:00,
2013-03-08 23:30:00,49.5,46.7,30.05,SE,130,0.0,2.0,90,0.00,,,0.00,0,Wunderground v.1.15,2013-03-09 07:30:00,
2013-03-08 23:35:00,49.5,46.7,30.05,SSE,149,1.0,2.0,90,0.00,,,0.00,0,Wunderground v.1.15,2013-03-09 07:35:00,
2013-03-08 23:40:00,49.3,46.8,30.05,SE,144,2.0,4.0,91,0.00,,,0.00,0,Wunderground v.1.15,2013-03-09 07:40:00,
2013-03-08 23:46:00,49.2,47.0,30.06,SE,133,2.0,4.0,92,0.00,,,0.00,0,Wunderground v.1.15,2013-03-09 07:46:00,
2013-03-08 23:51:00,49.1,46.9,30.06,SSE,154,2.0,4.0,92,0.00,,,0.00,0,Wunderground v.1.15,2013-03-09 07:51:00,
2013-03-08 23:57:00,49.0,47.1,30.06,SSE,158,2.0,4.0,93,0.00,,,0.00,0,Wunderground v.1.15,2013-03-09 07:57:00,